Time;durP1;ratioP1;P1;durP2;ratioP2;P2;SDS_P1;SDS_P2;PMS_P1;PMS_P2;Temp;Humidity;BMP_temperature;BMP_pressure;BME280_temperature;BME280_humidity;BME280_pressure;Samples;Min_cycle;Max_cycle;Signal;HPM_P1;HPM_P2
2023/06/04 00:01:00;;;;;;;4.30;2.30;;;;;;;13.33;63.53;102047.97;5010439;28;20041;-72
2023/06/04 00:03:25;;;;;;;3.85;2.22;;;;;;;13.26;64.37;102050.56;5010484;28;20025;-72
2023/06/04 00:05:50;;;;;;;5.40;2.40;;;;;;;13.27;64.25;102046.03;5010376;28;20489;-72
2023/06/04 00:08:16;;;;;;;2.17;1.60;;;;;;;13.23;65.09;102047.38;4992607;28;20034;-72
2023/06/04 00:10:41;;;;;;;3.17;1.92;;;;;;;13.21;64.87;102049.44;5010188;28;20032;-72
2023/06/04 00:13:06;;;;;;;3.80;1.90;;;;;;;13.22;64.95;102051.09;5010199;28;20388;-72
2023/06/04 00:15:32;;;;;;;4.78;2.25;;;;;;;13.19;65.17;102041.56;5010174;28;20064;-72
2023/06/04 00:17:57;;;;;;;3.65;2.17;;;;;;;13.15;65.26;102038.44;5009980;28;20346;-72
2023/06/04 00:20:23;;;;;;;5.82;1.95;;;;;;;13.09;65.69;102041.00;5009907;28;20413;-72
2023/06/04 00:22:48;;;;;;;3.03;2.30;;;;;;;13.11;66.00;102047.84;5010043;28;20103;-72
2023/06/04 00:25:13;;;;;;;6.82;2.42;;;;;;;13.08;66.61;102047.41;5010049;28;20033;-72
2023/06/04 00:27:39;;;;;;;1.50;1.40;;;;;;;13.05;66.51;102042.41;5009958;28;20030;-72
2023/06/04 00:30:05;;;;;;;5.50;2.28;;;;;;;13.01;66.86;102041.09;4992422;28;20045;-73
2023/06/04 00:32:30;;;;;;;4.38;2.00;;;;;;;12.96;67.58;102041.66;5009775;28;20033;-72
2023/06/04 00:34:57;;;;;;;4.85;2.65;;;;;;;12.92;67.49;102035.84;5009894;28;20033;-72
2023/06/04 00:37:24;;;;;;;3.88;1.83;;;;;;;12.89;67.60;102035.34;5010204;28;20465;-72
2023/06/04 00:39:50;;;;;;;2.70;1.88;;;;;;;12.81;68.08;102033.63;5009805;28;20100;-73
2023/06/04 00:42:15;;;;;;;3.45;2.38;;;;;;;12.73;68.32;102028.31;5009775;28;20060;-72
2023/06/04 00:44:44;;;;;;;2.85;1.98;;;;;;;12.79;68.92;102042.84;5009792;28;20026;-72
2023/06/04 00:47:16;;;;;;;5.38;2.00;;;;;;;12.78;68.32;102033.13;5009608;28;20038;-72
2023/06/04 00:49:42;;;;;;;3.35;1.90;;;;;;;12.74;69.18;102038.03;5009804;28;20594;-72
2023/06/04 00:52:09;;;;;;;2.45;2.03;;;;;;;12.69;68.91;102035.06;5009611;28;20037;-72
2023/06/04 00:54:35;;;;;;;2.30;2.10;;;;;;;12.64;70.01;102038.28;5009502;28;20054;-72
2023/06/04 00:57:01;;;;;;;4.38;2.80;;;;;;;12.60;70.00;102025.41;5009618;28;20100;-72
2023/06/04 00:59:26;;;;;;;7.85;2.60;;;;;;;12.59;69.38;102037.97;5009475;28;20385;-72
2023/06/04 01:02:06;;;;;;;3.75;2.10;;;;;;;12.56;69.40;102040.19;5009577;28;20060;-73
2023/06/04 01:05:09;;;;;;;2.33;1.73;;;;;;;12.55;68.57;102039.38;5009387;28;20034;-72
2023/06/04 01:07:35;;;;;;;;;;;;;;;12.56;65.93;102041.03;5009879;28;20835;-72
2023/06/04 01:10:00;;;;;;;4.63;2.10;;;;;;;12.42;69.88;102031.94;5009441;28;20372;-72
2023/06/04 01:12:26;;;;;;;6.05;3.38;;;;;;;12.33;71.09;102026.84;5009442;28;20069;-72
2023/06/04 01:14:51;;;;;;;3.95;2.00;;;;;;;12.41;71.26;102045.50;5009278;28;20029;-72
2023/06/04 01:17:28;;;;;;;3.53;2.08;;;;;;;12.35;72.19;102035.50;5009173;28;20164;-72
2023/06/04 01:19:54;;;;;;;3.25;1.80;;;;;;;12.31;72.19;102042.22;5008973;28;20050;-72
2023/06/04 01:22:54;;;;;;;3.65;2.42;;;;;;;12.19;71.00;102023.09;5009237;28;20897;-72
2023/06/04 01:25:20;;;;;;;3.80;2.55;;;;;;;12.26;72.46;102046.28;5005749;28;20102;-72
2023/06/04 01:27:50;;;;;;;4.40;2.20;;;;;;;12.23;73.12;102045.78;5009174;28;20018;-72
2023/06/04 01:30:16;;;;;;;6.38;1.85;;;;;;;12.19;73.34;102044.50;5009201;28;20079;-73
2023/06/04 01:32:42;;;;;;;4.00;2.28;;;;;;;12.10;73.17;102048.22;5009030;28;20388;-72
2023/06/04 01:35:11;;;;;;;3.75;2.72;;;;;;;12.13;73.17;102050.53;4991392;28;20049;-72
2023/06/04 01:37:36;;;;;;;3.28;1.77;;;;;;;12.09;73.54;102047.38;4991563;28;20022;-72
2023/06/04 01:40:02;;;;;;;2.65;2.03;;;;;;;12.05;74.03;102046.94;5009137;28;20041;-72
2023/06/04 01:42:27;;;;;;;3.17;1.50;;;;;;;11.99;74.08;102036.91;4991300;28;20050;-72
2023/06/04 01:44:52;;;;;;;3.58;2.30;;;;;;;11.94;74.45;102033.94;5008913;28;20100;-73
2023/06/04 01:47:18;;;;;;;6.07;2.38;;;;;;;11.97;74.37;102040.78;5009225;28;20030;-72
2023/06/04 01:49:43;;;;;;;3.20;2.17;;;;;;;11.91;74.46;102036.16;5012905;28;20038;-72
2023/06/04 01:52:08;;;;;;;4.32;1.73;;;;;;;11.89;75.06;102038.16;5013001;28;20026;-72
2023/06/04 01:54:34;;;;;;;5.07;2.45;;;;;;;11.81;75.18;102031.81;4995203;28;20034;-72
2023/06/04 01:56:59;;;;;;;6.55;2.50;;;;;;;11.80;75.65;102040.84;5013127;28;20022;-72
2023/06/04 01:59:25;;;;;;;5.63;2.20;;;;;;;11.77;75.96;102037.69;5012651;28;20033;-72
2023/06/04 02:01:50;;;;;;;4.30;2.42;;;;;;;11.73;75.79;102039.88;5012686;28;20127;-72
2023/06/04 02:04:16;;;;;;;5.60;2.42;;;;;;;11.67;75.62;102035.22;5012705;28;20041;-72
2023/06/04 02:06:41;;;;;;;4.22;2.60;;;;;;;11.66;75.57;102041.59;5012971;28;20381;-72
2023/06/04 02:09:06;;;;;;;5.25;1.83;;;;;;;11.63;76.12;102036.56;5012640;28;20030;-72
2023/06/04 02:11:32;;;;;;;2.53;1.95;;;;;;;11.63;75.83;102040.09;5012437;28;20117;-72
2023/06/04 02:13:57;;;;;;;5.85;2.05;;;;;;;11.62;76.46;102042.94;5012412;28;20030;-72
2023/06/04 02:16:22;;;;;;;9.02;2.22;;;;;;;11.56;76.74;102038.31;5012361;28;20037;-72
2023/06/04 02:18:48;;;;;;;4.35;2.00;;;;;;;11.54;76.68;102040.31;5012219;28;20385;-72
2023/06/04 02:21:13;;;;;;;5.00;2.50;;;;;;;11.53;76.78;102039.47;5012124;28;20062;-72
2023/06/04 02:23:38;;;;;;;4.03;2.33;;;;;;;11.48;77.17;102033.00;5012474;28;20042;-72
2023/06/04 02:26:05;;;;;;;2.67;1.77;;;;;;;11.42;77.56;102034.50;5012061;28;20500;-72
2023/06/04 02:28:30;;;;;;;2.55;2.22;;;;;;;11.37;77.47;102026.16;5011818;28;20500;-72
2023/06/04 02:30:55;;;;;;;5.90;2.92;;;;;;;11.35;77.64;102026.34;5012069;28;20037;-72
2023/06/04 02:33:21;;;;;;;3.15;2.13;;;;;;;11.33;77.51;102027.53;4994380;28;20409;-72
2023/06/04 02:35:47;;;;;;;5.13;1.90;;;;;;;11.27;77.86;102026.41;5012080;28;20140;-72
2023/06/04 02:38:12;;;;;;;4.90;1.85;;;;;;;11.27;78.53;102030.91;5011897;28;20029;-72
2023/06/04 02:40:39;;;;;;;5.65;2.78;;;;;;;11.23;78.80;102041.09;5012033;28;20112;-72
2023/06/04 02:43:04;;;;;;;5.05;3.03;;;;;;;11.18;78.72;102033.56;5011928;28;20083;-72
2023/06/04 02:45:29;;;;;;;2.38;1.70;;;;;;;11.17;78.70;102039.09;5011887;28;20656;-72
2023/06/04 02:47:57;;;;;;;5.78;3.38;;;;;;;11.13;78.79;102027.94;5011636;28;20026;-72
2023/06/04 02:50:22;;;;;;;3.95;2.10;;;;;;;11.16;79.34;102037.41;5011754;28;20489;-72
2023/06/04 02:52:47;;;;;;;4.22;2.30;;;;;;;11.17;78.57;102044.44;5011964;28;20030;-72
2023/06/04 02:55:13;;;;;;;6.10;2.78;;;;;;;11.14;79.11;102045.63;5011705;28;20477;-72
2023/06/04 02:57:42;;;;;;;2.80;2.13;;;;;;;11.03;79.17;102029.13;5011541;28;20413;-72
2023/06/04 03:00:12;;;;;;;5.70;2.08;;;;;;;11.08;79.08;102045.47;5010795;28;20061;-72
2023/06/04 03:03:01;;;;;;;3.75;2.13;;;;;;;11.05;79.44;102049.28;5011586;28;20173;-72
2023/06/04 03:05:26;;;;;;;5.72;3.03;;;;;;;10.99;80.10;102041.16;5011598;28;20038;-72
2023/06/04 03:07:52;;;;;;;3.42;1.88;;;;;;;10.97;79.84;102044.81;5011322;28;20033;-72
2023/06/04 03:10:17;;;;;;;4.22;2.60;;;;;;;10.92;80.06;102032.97;4993737;28;20038;-72
2023/06/04 03:12:43;;;;;;;4.95;2.58;;;;;;;10.91;80.23;102044.66;5011243;28;20029;-72
2023/06/04 03:15:09;;;;;;;4.93;2.35;;;;;;;10.83;79.79;102032.16;5011447;28;20042;-72
2023/06/04 03:17:35;;;;;;;2.35;1.90;;;;;;;10.88;79.94;102045.00;5011180;28;20076;-73
2023/06/04 03:20:00;;;;;;;4.22;2.03;;;;;;;10.79;80.22;102030.81;5011041;28;20088;-72
2023/06/04 03:22:26;;;;;;;6.22;2.63;;;;;;;10.82;80.35;102040.31;5010465;28;20045;-72
2023/06/04 03:24:52;;;;;;;2.70;2.15;;;;;;;10.68;80.50;102018.66;4993470;28;20034;-72
2023/06/04 03:27:17;;;;;;;3.08;2.67;;;;;;;10.76;80.44;102033.84;4993506;28;20026;-72
2023/06/04 03:29:43;;;;;;;2.85;1.92;;;;;;;10.75;80.81;102032.19;5011049;28;20427;-73
2023/06/04 03:32:08;;;;;;;2.65;2.05;;;;;;;10.71;80.54;102028.16;5011144;28;20030;-72
2023/06/04 03:34:34;;;;;;;4.65;2.20;;;;;;;10.73;80.61;102036.84;4993370;28;20087;-72
2023/06/04 03:37:00;;;;;;;3.75;2.50;;;;;;;10.72;80.57;102041.34;5011183;28;20041;-72
2023/06/04 03:39:25;;;;;;;5.75;2.55;;;;;;;10.66;80.26;102036.69;4993281;28;20049;-72
2023/06/04 03:41:51;;;;;;;3.35;1.90;;;;;;;10.64;80.71;102041.38;5010786;28;20034;-72
2023/06/04 03:44:17;;;;;;;5.22;2.47;;;;;;;10.67;80.35;102045.53;5010761;28;20033;-72
2023/06/04 03:46:43;;;;;;;5.70;2.13;;;;;;;10.65;80.86;102039.53;4992458;28;20045;-73
2023/06/04 03:49:10;;;;;;;4.40;2.20;;;;;;;10.64;80.32;102040.53;5011091;28;20026;-72
2023/06/04 03:51:39;;;;;;;4.93;2.28;;;;;;;10.64;80.58;102040.53;5010603;28;20606;-72
2023/06/04 03:54:05;;;;;;;3.80;2.17;;;;;;;10.59;80.73;102037.53;5010662;28;20117;-72
2023/06/04 03:56:31;;;;;;;11.80;3.85;;;;;;;10.59;80.38;102033.03;5010537;28;20022;-72
2023/06/04 03:58:57;;;;;;;4.85;2.38;;;;;;;10.67;80.47;102037.53;5010431;28;20041;-72
2023/06/04 04:01:26;;;;;;;10.00;2.47;;;;;;;10.67;79.91;102034.84;5010427;28;20034;-72
2023/06/04 04:03:52;;;;;;;4.53;2.47;;;;;;;10.66;80.55;102038.50;5010476;28;20469;-72
2023/06/04 04:06:17;;;;;;;2.42;1.80;;;;;;;10.69;80.20;102035.53;5010209;28;20440;-72
2023/06/04 04:08:43;;;;;;;3.80;2.20;;;;;;;10.79;79.75;102036.16;5010445;28;20029;-72
2023/06/04 04:11:15;;;;;;;4.90;2.13;;;;;;;10.85;80.13;102043.50;5010095;28;20068;-72
2023/06/04 04:13:40;;;;;;;10.27;2.90;;;;;;;10.86;79.80;102047.00;5010388;28;20112;-72
2023/06/04 04:16:06;;;;;;;5.10;2.40;;;;;;;10.85;79.81;102043.50;5010054;28;20120;-72
2023/06/04 04:18:36;;;;;;;4.82;2.75;;;;;;;10.88;80.79;102047.69;5010441;28;20037;-72
2023/06/04 04:21:02;;;;;;;3.63;1.88;;;;;;;10.88;80.57;102040.50;5010005;28;20062;-72
2023/06/04 04:23:28;;;;;;;3.10;2.00;;;;;;;10.91;80.09;102044.66;5010072;28;20088;-72
2023/06/04 04:25:56;;;;;;;6.22;2.50;;;;;;;10.88;79.76;102040.50;5010023;28;20029;-72
2023/06/04 04:28:22;;;;;;;4.18;2.10;;;;;;;10.90;79.66;102040.34;5010060;28;20076;-72
2023/06/04 04:30:48;;;;;;;5.13;2.70;;;;;;;10.97;79.67;102049.31;5010037;28;20038;-72
2023/06/04 04:33:15;;;;;;;6.35;2.45;;;;;;;11.00;79.86;102042.81;5010188;28;20025;-72
2023/06/04 04:35:42;;;;;;;3.65;2.42;;;;;;;11.08;79.47;102048.13;5009969;28;20072;-72
2023/06/04 04:38:08;;;;;;;4.55;2.50;;;;;;;11.13;78.97;102043.97;4992085;28;20037;-72
2023/06/04 04:40:33;;;;;;;3.90;2.22;;;;;;;11.21;79.06;102050.25;5009888;28;20539;-72
2023/06/04 04:42:59;;;;;;;6.22;3.05;;;;;;;11.26;78.19;102051.41;5009759;28;20022;-72
2023/06/04 04:45:24;;;;;;;6.40;2.67;;;;;;;11.29;79.14;102047.56;5009781;28;20370;-72
2023/06/04 04:47:50;;;;;;;7.50;2.38;;;;;;;11.29;78.80;102047.56;5009913;28;20144;-72
2023/06/04 04:50:16;;;;;;;6.97;2.70;;;;;;;11.39;78.60;102054.38;4975921;28;20479;-72
2023/06/04 04:52:42;;;;;;;6.90;2.33;;;;;;;11.40;79.24;102050.72;5009693;28;20104;-72
2023/06/04 04:55:08;;;;;;;6.90;2.60;;;;;;;11.41;78.51;102052.38;5009533;28;20030;-72
2023/06/04 04:57:33;;;;;;;4.05;2.83;;;;;;;11.46;77.78;102051.03;5009360;28;20033;-72
2023/06/04 04:59:59;;;;;;;6.53;2.78;;;;;;;11.54;78.18;102051.81;5009504;28;20034;-72
2023/06/04 05:02:24;;;;;;;4.20;2.50;;;;;;;11.63;77.22;102056.16;5009417;28;20037;-73
2023/06/04 05:04:50;;;;;;;4.38;2.78;;;;;;;11.66;78.59;102049.63;5009535;28;20033;-72
2023/06/04 05:07:15;;;;;;;5.95;3.25;;;;;;;11.78;77.32;102058.88;5009554;28;20863;-72
2023/06/04 05:09:40;;;;;;;4.28;2.30;;;;;;;11.78;76.46;102056.22;5009627;28;20026;-72
2023/06/04 05:12:06;;;;;;;3.92;2.22;;;;;;;11.84;76.29;102060.88;5009428;28;20041;-72
2023/06/04 05:14:32;;;;;;;3.55;2.47;;;;;;;11.91;76.50;102063.69;5009726;28;20030;-73
2023/06/04 05:16:58;;;;;;;6.38;2.88;;;;;;;11.89;76.41;102056.88;5009105;28;20148;-72
2023/06/04 05:19:23;;;;;;;7.35;2.50;;;;;;;11.95;76.17;102058.84;5009186;28;20365;-72
2023/06/04 05:21:49;;;;;;;3.90;2.65;;;;;;;11.96;76.20;102064.00;5008826;28;20068;-72
2023/06/04 05:24:15;;;;;;;5.50;2.70;;;;;;;11.91;76.93;102047.66;5009116;28;20029;-72
2023/06/04 05:26:41;;;;;;;9.50;2.92;;;;;;;12.07;76.57;102068.13;5009471;28;20409;-73
2023/06/04 05:29:07;;;;;;;4.20;2.42;;;;;;;12.18;77.63;102067.75;5009440;28;20038;-72
2023/06/04 05:31:34;;;;;;;6.47;2.90;;;;;;;12.21;75.43;102067.38;5009264;28;20127;-72
2023/06/04 05:34:07;;;;;;;5.68;2.55;;;;;;;12.18;75.83;102054.38;4991716;28;20029;-73
2023/06/04 05:36:32;;;;;;;5.13;2.28;;;;;;;12.31;75.65;102061.78;5009384;28;20041;-72
2023/06/04 05:38:59;;;;;;;6.97;3.08;;;;;;;12.37;75.57;102066.44;5009249;28;20416;-72
2023/06/04 05:41:25;;;;;;;6.45;3.50;;;;;;;12.43;76.20;102060.34;5009323;28;20392;-72
2023/06/04 05:43:51;;;;;;;4.88;2.63;;;;;;;12.58;75.26;102065.75;4991680;28;20029;-72
2023/06/04 05:46:17;;;;;;;4.30;2.75;;;;;;;12.62;75.39;102059.03;4991908;28;20476;-73
2023/06/04 05:48:42;;;;;;;8.88;3.05;;;;;;;12.75;75.20;102063.75;5009197;28;20492;-72
2023/06/04 05:51:07;;;;;;;6.00;3.42;;;;;;;12.85;73.88;102063.53;5009172;28;20588;-72
2023/06/04 05:53:33;;;;;;;5.18;2.65;;;;;;;13.07;73.84;102059.09;5009414;28;20111;-72
2023/06/04 05:55:58;;;;;;;8.85;3.13;;;;;;;13.55;72.05;102056.94;5008917;28;20398;-72
2023/06/04 05:58:24;;;;;;;4.30;2.35;;;;;;;14.49;67.67;102064.97;5008899;28;20117;-72
2023/06/04 06:00:50;;;;;;;6.22;2.53;;;;;;;15.15;65.33;102061.19;5009021;28;20038;-73
2023/06/04 06:03:16;;;;;;;6.30;2.58;;;;;;;15.23;64.82;102055.63;5008854;28;20034;-73
2023/06/04 06:05:42;;;;;;;4.03;3.00;;;;;;;14.97;63.89;102053.63;5008885;28;20033;-73
2023/06/04 06:08:07;;;;;;;5.25;2.90;;;;;;;14.71;65.18;102071.19;5009234;28;20385;-73
2023/06/04 06:10:32;;;;;;;4.90;2.28;;;;;;;14.40;65.54;102069.63;5008985;28;20519;-73
2023/06/04 06:12:58;;;;;;;4.53;3.25;;;;;;;14.30;66.61;102066.44;4991524;28;20949;-72
2023/06/04 06:15:23;;;;;;;4.35;3.00;;;;;;;14.17;68.08;102072.53;5008669;28;20026;-73
2023/06/04 06:17:49;;;;;;;4.85;2.78;;;;;;;14.07;66.24;102068.47;4990978;28;20527;-73
2023/06/04 06:20:17;;;;;;;6.32;3.05;;;;;;;14.03;66.37;102074.22;5008628;28;20066;-72
2023/06/04 06:22:42;;;;;;;4.57;3.00;;;;;;;14.07;67.38;102065.78;5008724;28;20026;-73
2023/06/04 06:25:08;;;;;;;4.22;2.45;;;;;;;14.14;66.92;102067.50;5008739;28;20040;-73
2023/06/04 06:27:33;;;;;;;5.85;2.70;;;;;;;14.13;66.69;102073.91;5008865;28;20030;-72
2023/06/04 06:29:59;;;;;;;5.75;2.38;;;;;;;14.09;65.77;102072.63;5008794;28;20037;-73
2023/06/04 06:32:24;;;;;;;10.70;3.63;;;;;;;14.11;67.13;102069.75;5008959;28;20042;-72
2023/06/04 06:34:50;;;;;;;7.32;2.67;;;;;;;14.15;67.17;102081.78;5010916;28;20432;-73
2023/06/04 06:37:15;;;;;;;8.02;2.72;;;;;;;14.18;67.22;102076.84;5012433;28;20041;-72
2023/06/04 06:39:40;;;;;;;6.82;2.40;;;;;;;14.22;66.47;102083.47;5012086;28;20378;-72
2023/06/04 06:42:06;;;;;;;7.80;2.67;;;;;;;14.26;66.66;102075.91;5012366;28;20033;-73
2023/06/04 06:44:31;;;;;;;4.45;2.35;;;;;;;14.35;64.72;102087.34;5012205;28;20021;-73
2023/06/04 06:46:56;;;;;;;4.35;2.95;;;;;;;14.38;64.16;102081.56;5012265;28;20034;-73
2023/06/04 06:49:22;;;;;;;4.63;2.60;;;;;;;14.47;65.15;102093.88;4994422;28;20564;-72
2023/06/04 06:51:47;;;;;;;4.90;2.42;;;;;;;14.52;63.56;102091.44;5012064;28;20033;-73
2023/06/04 06:54:16;;;;;;;3.55;2.28;;;;;;;14.58;63.31;102088.00;5012022;28;20025;-73
2023/06/04 06:56:41;;;;;;;4.60;2.22;;;;;;;14.61;63.34;102084.94;5011878;28;20030;-72
2023/06/04 06:59:06;;;;;;;4.93;2.85;;;;;;;14.77;62.55;102091.06;4994031;28;20037;-73
2023/06/04 07:01:33;;;;;;;6.80;2.70;;;;;;;14.87;63.29;102099.59;4994127;28;20389;-72
2023/06/04 07:03:58;;;;;;;4.25;2.63;;;;;;;14.92;62.67;102088.28;5011712;28;20107;-72
2023/06/04 07:06:24;;;;;;;5.50;2.75;;;;;;;14.99;58.49;102091.88;5011648;28;20077;-72
2023/06/04 07:08:50;;;;;;;3.55;2.08;;;;;;;15.07;56.75;102099.78;4994388;28;20022;-72
2023/06/04 07:11:16;;;;;;;5.57;2.95;;;;;;;15.16;58.40;102095.91;5011702;28;20040;-72
2023/06/04 07:13:42;;;;;;;7.65;2.67;;;;;;;15.24;59.83;102097.59;5011749;28;20029;-72
2023/06/04 07:16:07;;;;;;;4.35;2.42;;;;;;;15.34;60.07;102101.59;5011422;28;20043;-72
2023/06/04 07:18:33;;;;;;;5.45;2.55;;;;;;;15.45;61.08;102099.38;5011411;28;20057;-72
2023/06/04 07:20:58;;;;;;;4.97;2.47;;;;;;;15.50;56.90;102099.63;5011316;28;20536;-72
2023/06/04 07:23:24;;;;;;;6.90;2.70;;;;;;;15.54;54.97;102095.53;5011202;28;20038;-72
2023/06/04 07:25:50;;;;;;;7.13;3.17;;;;;;;15.62;56.03;102107.97;5011334;28;20033;-72
2023/06/04 07:28:15;;;;;;;3.70;2.38;;;;;;;15.68;56.62;102096.41;5011305;28;20076;-72
2023/06/04 07:30:41;;;;;;;3.47;2.30;;;;;;;15.81;57.46;102096.50;5011066;28;20037;-72
2023/06/04 07:33:06;;;;;;;5.95;2.63;;;;;;;15.91;53.94;102101.50;5011178;28;20034;-72
2023/06/04 07:35:31;;;;;;;4.28;1.90;;;;;;;16.00;53.85;102102.97;4993235;28;20391;-71
2023/06/04 07:37:57;;;;;;;4.25;2.47;;;;;;;16.07;53.12;102103.84;4992934;28;20080;-71
2023/06/04 07:40:22;;;;;;;2.97;2.25;;;;;;;16.09;50.43;102095.56;5009270;28;20122;-72
2023/06/04 07:42:48;;;;;;;4.47;2.70;;;;;;;16.20;52.05;102103.88;5009791;28;20053;-73
2023/06/04 07:45:14;;;;;;;7.05;2.30;;;;;;;16.31;52.69;102097.06;5008388;28;20026;-72
2023/06/04 07:47:40;;;;;;;2.90;2.17;;;;;;;16.40;53.59;102105.75;5009690;28;20032;-73
2023/06/04 07:50:06;;;;;;;6.65;2.50;;;;;;;16.46;51.76;102099.56;5010046;28;20033;-73
2023/06/04 07:52:32;;;;;;;5.93;2.50;;;;;;;16.54;50.57;102107.44;5010679;28;20021;-73
2023/06/04 07:54:58;;;;;;;6.32;2.35;;;;;;;16.63;51.10;102108.91;5010796;28;20036;-73
2023/06/04 07:57:24;;;;;;;3.90;2.63;;;;;;;16.70;51.04;102111.59;5010573;28;20037;-72
2023/06/04 07:59:50;;;;;;;5.85;2.63;;;;;;;16.77;50.10;102099.00;5010909;28;20113;-72
2023/06/04 08:02:17;;;;;;;4.72;2.10;;;;;;;16.89;48.10;102115.38;5010762;28;20111;-73
2023/06/04 08:04:42;;;;;;;5.72;2.85;;;;;;;16.91;49.27;102089.03;4992929;28;20033;-73
2023/06/04 08:07:07;;;;;;;6.05;2.50;;;;;;;17.11;48.34;102107.06;5010555;28;20113;-73
2023/06/04 08:09:33;;;;;;;5.13;2.55;;;;;;;17.25;48.44;102103.31;5010514;28;20029;-73
2023/06/04 08:11:59;;;;;;;4.05;2.85;;;;;;;17.38;48.78;102103.28;4992819;28;20033;-73
2023/06/04 08:14:27;;;;;;;4.30;2.13;;;;;;;18.31;45.83;102099.38;5010054;28;20120;-73
2023/06/04 08:16:53;;;;;;;3.13;2.00;;;;;;;20.81;41.58;102094.28;5010280;28;20045;-73
2023/06/04 08:19:19;;;;;;;4.78;2.15;;;;;;;23.25;35.85;102093.78;4992485;28;20046;-73
2023/06/04 08:21:45;;;;;;;4.40;2.53;;;;;;;25.13;32.74;102104.97;5009832;28;20521;-73
2023/06/04 08:24:11;;;;;;;3.95;2.00;;;;;;;26.78;29.52;102105.16;5010413;28;20101;-73
2023/06/04 08:26:36;;;;;;;2.83;2.22;;;;;;;27.39;28.71;102101.47;5010285;28;20537;-73
2023/06/04 08:29:05;;;;;;;3.15;1.70;;;;;;;28.17;26.93;102102.75;5009703;28;20110;-73
2023/06/04 08:31:31;;;;;;;2.22;1.65;;;;;;;28.61;24.79;102110.94;5009747;28;20489;-73
2023/06/04 08:33:56;;;;;;;5.45;1.98;;;;;;;29.08;24.87;102107.75;5009965;28;20044;-73
2023/06/04 08:36:21;;;;;;;2.25;1.33;;;;;;;30.01;23.26;102105.50;5010199;28;20029;-74
2023/06/04 08:38:50;;;;;;;5.45;1.77;;;;;;;30.46;23.10;102114.97;4992344;28;21189;-74
2023/06/04 08:41:23;;;;;;;2.35;1.63;;;;;;;30.16;23.08;102110.78;5010129;28;20030;-74
2023/06/04 08:43:49;;;;;;;2.47;1.70;;;;;;;29.91;23.60;102101.75;5010008;28;20032;-74
2023/06/04 08:46:17;;;;;;;5.93;2.30;;;;;;;29.73;22.63;102113.56;4992569;28;20026;-73
2023/06/04 08:48:43;;;;;;;2.85;2.60;;;;;;;29.58;22.90;102108.25;5009780;28;20029;-76
2023/06/04 08:51:10;;;;;;;3.35;2.28;;;;;;;28.72;22.72;102095.19;5009709;28;20421;-74
2023/06/04 08:53:39;;;;;;;1.65;1.48;;;;;;;28.78;23.28;102115.16;5009471;28;20129;-74
2023/06/04 08:56:05;;;;;;;2.42;1.70;;;;;;;28.59;21.34;102106.84;5009646;28;20481;-74
2023/06/04 08:58:40;;;;;;;2.85;1.85;;;;;;;29.10;23.58;102105.53;4991242;28;20034;-76
2023/06/04 09:01:06;;;;;;;2.65;1.73;;;;;;;28.57;22.36;102115.34;5009752;28;20049;-76
2023/06/04 09:03:32;;;;;;;5.90;1.95;;;;;;;27.38;24.67;102113.56;5009752;28;20473;-76
2023/06/04 09:05:59;;;;;;;4.30;1.77;;;;;;;25.92;26.20;102123.13;5009931;28;20032;-76
2023/06/04 09:08:26;;;;;;;2.08;1.70;;;;;;;24.50;27.27;102115.69;5010020;28;20121;-76
2023/06/04 09:10:54;;;;;;;3.35;2.00;;;;;;;23.37;28.57;102108.09;5009511;28;20117;-76
2023/06/04 09:13:22;;;;;;;2.15;1.40;;;;;;;22.72;29.46;102115.84;5010151;28;20030;-77
2023/06/04 09:15:58;;;;;;;5.57;1.88;;;;;;;22.39;32.08;102111.19;5009298;28;20037;-77
2023/06/04 09:18:26;;;;;;;3.30;1.60;;;;;;;21.87;31.45;102116.72;4992039;28;20038;-77
2023/06/04 09:21:06;;;;;;;5.68;1.50;;;;;;;21.49;32.78;102112.69;5009333;28;20104;-76
2023/06/04 09:23:44;;;;;;;2.40;1.48;;;;;;;21.29;31.04;102109.50;5009952;28;20151;-75
2023/06/04 09:26:09;;;;;;;2.05;1.52;;;;;;;21.22;31.65;102118.59;5009409;28;20450;-76
2023/06/04 09:28:36;;;;;;;3.08;1.30;;;;;;;21.26;31.65;102120.81;5009368;28;20053;-76
2023/06/04 09:31:04;;;;;;;2.13;1.08;;;;;;;21.22;30.54;102123.16;5008799;28;20045;-75
2023/06/04 09:33:29;;;;;;;3.80;1.50;;;;;;;21.11;31.39;102122.13;5009147;28;20084;-71
2023/06/04 09:35:56;;;;;;;3.17;1.80;;;;;;;21.06;32.08;102118.47;5008775;28;20033;-76
2023/06/04 09:38:22;;;;;;;1.23;1.02;;;;;;;20.96;31.95;102119.88;5005617;28;20034;-83
2023/06/04 09:40:49;;;;;;;4.85;1.30;;;;;;;20.87;33.14;102121.28;5004707;28;20041;-79
2023/06/04 09:43:23;;;;;;;1.75;1.08;;;;;;;20.77;32.25;102121.84;5003548;28;20542;-83
2023/06/04 09:45:48;;;;;;;2.22;1.25;;;;;;;20.72;32.95;102121.75;5003352;28;20111;-76
2023/06/04 09:48:21;;;;;;;2.45;1.48;;;;;;;20.77;33.59;102113.72;5003595;28;20117;-79
2023/06/04 09:50:46;;;;;;;5.15;1.73;;;;;;;20.83;32.71;102106.56;5002901;28;20822;-73
2023/06/04 09:53:17;;;;;;;1.27;1.15;;;;;;;20.98;33.42;102115.03;5003079;28;20136;-71
2023/06/04 09:55:43;;;;;;;2.63;1.30;;;;;;;21.10;31.68;102104.19;5003472;28;20390;-71
2023/06/04 09:58:11;;;;;;;1.52;1.15;;;;;;;21.03;30.74;102098.06;5002715;28;20029;-71
2023/06/04 10:00:37;;;;;;;1.63;1.23;;;;;;;21.22;31.45;102113.16;4984440;28;20033;-70
2023/06/04 10:03:03;;;;;;;1.48;1.05;;;;;;;21.27;30.85;102098.88;4985476;28;20080;-70
2023/06/04 10:05:33;;;;;;;1.42;1.00;;;;;;;21.42;31.88;102109.28;5002995;28;20052;-70
2023/06/04 10:08:05;;;;;;;2.63;1.00;;;;;;;21.50;30.93;102108.91;5002435;28;20052;-70
2023/06/04 10:10:34;;;;;;;1.00;1.00;;;;;;;21.55;30.11;102113.63;5006690;28;20160;-70
2023/06/04 10:13:15;;;;;;;4.47;1.27;;;;;;;21.56;31.29;102115.25;5006752;28;20022;-70
2023/06/04 10:15:40;;;;;;;2.80;1.58;;;;;;;21.43;31.35;102106.34;5006759;28;20037;-71
2023/06/04 10:18:06;;;;;;;1.80;1.08;;;;;;;21.41;32.71;102108.44;4988404;28;20033;-69
2023/06/04 10:20:31;;;;;;;3.20;1.98;;;;;;;21.43;32.28;102109.03;5005904;28;20069;-70
2023/06/04 10:22:58;;;;;;;4.00;1.38;;;;;;;21.56;33.16;102105.25;5005835;28;20034;-70
2023/06/04 10:25:25;;;;;;;1.55;1.45;;;;;;;21.65;33.12;102103.78;5005242;28;20029;-74
2023/06/04 10:27:51;;;;;;;3.85;1.85;;;;;;;21.66;32.97;102100.00;5006487;28;20032;-70
2023/06/04 10:30:17;;;;;;;12.27;1.77;;;;;;;21.79;33.83;102089.94;5006133;28;20038;-74
2023/06/04 10:32:42;;;;;;;6.50;1.30;;;;;;;21.72;32.52;102098.22;5006338;28;20504;-72
2023/06/04 10:35:08;;;;;;;2.55;1.73;;;;;;;21.73;32.44;102097.16;5006206;28;20046;-71
2023/06/04 10:37:33;;;;;;;4.97;1.20;;;;;;;21.81;32.94;102101.38;5006342;28;20032;-72
2023/06/04 10:39:59;;;;;;;2.63;1.75;;;;;;;21.68;31.46;102099.78;4988059;28;20030;-73
2023/06/04 10:42:25;;;;;;;2.22;1.40;;;;;;;21.62;31.44;102101.56;5006137;28;20030;-71
2023/06/04 10:44:52;;;;;;;2.20;1.13;;;;;;;21.74;32.46;102100.69;4994945;28;20028;-71
2023/06/04 10:47:30;;;;;;;2.53;1.70;;;;;;;22.04;33.66;102095.03;5005647;28;21540;-71
2023/06/04 10:50:07;;;;;;;1.33;1.20;;;;;;;22.15;31.72;102096.88;5004546;28;20033;-71
2023/06/04 10:52:32;;;;;;;1.13;1.05;;;;;;;22.19;29.79;102100.81;4988771;28;20385;-71
2023/06/04 10:55:06;;;;;;;0.98;0.98;;;;;;;22.32;30.69;102099.63;5005753;28;20067;-71
2023/06/04 10:57:31;;;;;;;2.45;1.08;;;;;;;22.38;31.74;102103.31;5006189;28;20109;-73
2023/06/04 10:59:58;;;;;;;2.65;1.20;;;;;;;22.27;30.21;102094.97;4988059;28;20022;-72
2023/06/04 11:02:24;;;;;;;6.40;1.33;;;;;;;22.34;31.54;102096.69;5006361;28;20053;-70
2023/06/04 11:05:09;;;;;;;4.70;1.40;;;;;;;22.36;33.24;102100.81;5005851;28;20034;-73
2023/06/04 11:07:45;;;;;;;2.55;1.33;;;;;;;22.39;32.61;102108.47;5005725;28;20527;-71
2023/06/04 11:10:12;;;;;;;2.33;1.30;;;;;;;22.27;31.23;102102.31;5005553;28;20069;-71
2023/06/04 11:12:50;;;;;;;2.40;1.13;;;;;;;22.44;32.90;102096.88;5005955;28;20543;-73
2023/06/04 11:15:16;;;;;;;3.88;1.63;;;;;;;22.55;31.50;102095.97;4979084;28;20132;-74
2023/06/04 11:17:58;;;;;;;2.75;1.40;;;;;;;22.55;32.92;102085.09;5005024;28;20029;-73
2023/06/04 11:20:23;;;;;;;2.42;1.42;;;;;;;22.56;32.82;102089.47;5004078;28;20065;-73
2023/06/04 11:22:51;;;;;;;1.90;1.58;;;;;;;22.50;32.61;102093.97;5005996;28;20053;-73